Regional Weather

 

KCRX - Corinth, Mississippi, USA
Distance from station: SW 29mi, 47km
Updated: Wed, 08-Apr-2020 12:55pm CDT
Mostly cloudy
Mostly cloudy
 Wind from SSW
Wind: SSW 13 mph , 20 km/h
Temperature: 81°F , 27°C
Heat Index: 84°F , 29°C
Dew Point: 68°F , 20°C
Humidity: 66%
Barometer: 29.82 inHg , 1009.8 hPa
Clouds: Mostly cloudy
Visibility: 9 miles , 14 km
Cloud details: Mostly cloudy 2600 ft
2020/04/08 17:55 KCRX 081755Z AUTO 21011KT 9SM BKN026 27/20 A2982 RMK AO2
KMKL - Jackson, Tennessee, USA
Distance from station: NW 46mi, 73km
Updated: Wed, 08-Apr-2020 12:58pm CDT
unable to load KMKL data RC=
unable to load KMKL data RC=
 
 
KMSL - Muscle Shoal, Alabama, USA
Distance from station: SE 49mi, 79km
Updated: Wed, 08-Apr-2020 12:53pm CDT
Overcast
Overcast
 Wind from SW
Wind: SW 7 mph , 11 km/h
Temperature: 79°F , 26°C
Dew Point: 70°F , 21°C
Humidity: 74%
Barometer: 29.84 inHg , 1010.5 hPa
Clouds: Overcast
Visibility: 10 miles , 16 km
Cloud details: Partly cloudy 1700 ft
Partly cloudy 2200 ft
Overcast 2900 ft
2020/04/08 17:53 KMSL 081753Z AUTO 23006KT 10SM SCT017 SCT022 OVC029 26/21 A2984 RMK AO2 SLP098 T02560206 10267 20211 58015
KTUP - Tupelo, Mississippi, USA
Distance from station: SSW 72mi, 117km
Updated: Wed, 08-Apr-2020 12:53pm CDT
Mostly cloudy
Mostly cloudy
 Wind from SW
Wind: SW 6 mph , 9 km/h
Temperature: 77°F , 25°C
Dew Point: 72°F , 22°C
Humidity: 83%
Barometer: 29.84 inHg , 1010.5 hPa
Clouds: Mostly cloudy
Visibility: 8 miles , 13 km
Cloud details: Few Clouds 1700 ft
Partly cloudy 2300 ft
Mostly cloudy 2700 ft
2020/04/08 17:53 KTUP 081753Z 23005KT 8SM FEW017 SCT023 BKN027 25/22 A2984 RMK AO2 SLP101 T02500217 10261 20200 58011
 
KHSV - Huntsville, Alabama, USA
Distance from station: ESE 92mi, 148km
Updated: Wed, 08-Apr-2020 12:53pm CDT
Mostly cloudy
Mostly cloudy
 Wind from WSW
Wind: WSW 7 mph , 11 km/h
Temperature: 75°F , 24°C
Dew Point: 68°F , 20°C
Humidity: 78%
Barometer: 29.84 inHg , 1010.5 hPa
Clouds: Mostly cloudy
Visibility: 10 miles , 16 km
Cloud details: Partly cloudy 1700 ft
Mostly cloudy 2800 ft
Mostly cloudy 3500 ft
2020/04/08 17:53 KHSV 081753Z 25006KT 10SM SCT017 BKN028 BKN035 24/20 A2984 RMK AO2 SLP098 BINOVC T02440200 10250 20183 58018 $
KBNA - Nashville, TN, USA
Distance from station: NE 97mi, 157km
Updated: Wed, 08-Apr-2020 12:53pm CDT
Mostly cloudy
Mostly cloudy
 Wind from WSW
Wind: WSW 3 mph , 6 km/h
Temperature: 79°F , 26°C
Dew Point: 64°F , 18°C
Humidity: 61%
Barometer: 29.81 inHg , 1009.5 hPa
Clouds: Mostly cloudy
Visibility: 10 miles , 16 km
Cloud details: Partly cloudy 2300 ft
Mostly cloudy 2900 ft
Mostly cloudy 25000 ft
2020/04/08 17:53 KBNA 081753Z 24003KT 10SM SCT023 BKN029 BKN250 26/18 A2981 RMK AO2 SLP088 T02560183 10267 20200 58014
 
KMEM - Memphis, Tennessee, USA
Distance from station: W 99mi, 159km
Updated: Wed, 08-Apr-2020 12:54pm CDT
Mostly cloudy
Mostly cloudy
 Wind from SW
Wind: SW 12 mph , 19 km/h
Temperature: 79°F , 26°C
Dew Point: 72°F , 22°C
Humidity: 79%
Barometer: 29.82 inHg , 1009.8 hPa
Clouds: Mostly cloudy
Visibility: 10 miles , 16 km
Cloud details: Mostly cloudy 2000 ft
2020/04/08 17:54 KMEM 081754Z 23010KT 10SM BKN020 26/22 A2982 RMK AO2 SLP094 T02610217 10267 20217 58007
KCKV - Clarksville, TN, USA
Distance from station: NNE 99mi, 159km
Updated: Wed, 08-Apr-2020 12:58pm CDT
unable to load KCKV data RC=
unable to load KCKV data RC=
 
 
KCHA - Chattanooga, TN, USA
Distance from station: E 165mi, 265km
Updated: Wed, 08-Apr-2020 12:53pm CDT
Partly cloudy
Partly cloudy
 Wind from SSW
Wind: SSW 10 mph , 17 km/h
Temperature: 81°F , 27°C
Heat Index: 82°F , 28°C
Dew Point: 63°F , 17°C
Humidity: 54%
Barometer: 29.83 inHg , 1010.2 hPa
Clouds: Partly cloudy
Visibility: 10 miles , 16 km
Cloud details: Partly cloudy 3500 ft
Partly cloudy 18000 ft
Partly cloudy 25000 ft
2020/04/08 17:53 KCHA 081753Z 21009KT 10SM SCT035 SCT180 SCT250 27/17 A2983 RMK AO2 SLP096 T02670172 10267 20189 58016
KTYS - Knoxville, TN, USA
Distance from station: E 234mi, 377km
Updated: Wed, 08-Apr-2020 12:53pm CDT
Mostly cloudy
Mostly cloudy
 Wind from SSW
Wind: SSW 9 mph , 15 km/h
Temperature: 75°F , 24°C
Dew Point: 61°F , 16°C
Humidity: 61%
Barometer: 29.82 inHg , 1009.8 hPa
Clouds: Mostly cloudy
Visibility: 10 miles , 16 km
Cloud details: Mostly cloudy 2700 ft
Mostly cloudy 25000 ft
2020/04/08 17:53 KTYS 081753Z 21008KT 10SM BKN027 BKN250 24/16 A2982 RMK AO2 SLP090 T02440161 10244 20172 58015

Refresh Page for latest data.